createdAt,value
2017-11-25T00:02:16.156Z,11.50
2017-11-25T00:04:44.440Z,11.60
2017-11-25T00:07:12.706Z,11.60
2017-11-25T00:09:41.188Z,11.30
2017-11-25T00:12:09.448Z,11.30
2017-11-25T00:14:39.249Z,11.40
2017-11-25T00:17:07.530Z,11.50
2017-11-25T00:19:35.801Z,11.50
2017-11-25T00:22:04.204Z,11.60
2017-11-25T00:24:32.479Z,11.30
2017-11-25T00:27:00.964Z,11.30
2017-11-25T00:29:30.788Z,11.30
2017-11-25T00:31:59.921Z,11.30
2017-11-25T00:34:28.186Z,11.20
2017-11-25T00:36:56.492Z,11.30
2017-11-25T00:39:24.765Z,11.30
2017-11-25T00:41:54.100Z,11.50
2017-11-25T00:44:23.887Z,11.40
2017-11-25T00:46:52.195Z,11.30
2017-11-25T00:49:20.481Z,11.50
2017-11-25T00:51:49.515Z,11.50
2017-11-25T00:54:17.808Z,11.20
2017-11-25T00:56:46.190Z,11.50
2017-11-25T00:59:14.473Z,11.50
2017-11-25T01:01:42.775Z,11.30
2017-11-25T01:04:11.054Z,11.50
2017-11-25T01:06:39.302Z,11.40
2017-11-25T01:09:07.631Z,11.40
2017-11-25T01:11:36.078Z,11.30
2017-11-25T01:14:04.320Z,11.40
2017-11-25T01:16:32.865Z,11.40
2017-11-25T01:19:01.182Z,11.50
2017-11-25T01:21:29.514Z,11.30
2017-11-25T01:23:57.953Z,11.00
2017-11-25T01:26:27.694Z,10.70
2017-11-25T01:28:56.022Z,10.90
2017-11-25T01:31:25.361Z,10.90
2017-11-25T01:33:53.688Z,10.50
2017-11-25T01:36:22.938Z,10.30
2017-11-25T01:38:51.419Z,10.30
2017-11-25T01:41:19.726Z,10.40
2017-11-25T01:43:48.074Z,10.50
2017-11-25T01:46:17.442Z,10.30
2017-11-25T01:48:45.764Z,10.30
2017-11-25T01:51:14.059Z,10.30
2017-11-25T01:53:42.382Z,10.00
2017-11-25T01:56:10.802Z,10.10
2017-11-25T01:58:39.809Z,10.20
2017-11-25T02:01:08.894Z,10.00
2017-11-25T02:03:37.962Z,9.90
2017-11-25T02:06:07.011Z,9.60
2017-11-25T02:08:36.266Z,9.50
2017-11-25T02:11:06.060Z,9.20
2017-11-25T02:13:34.876Z,9.10
2017-11-25T02:16:03.395Z,9.10
2017-11-25T02:18:31.722Z,8.90
2017-11-25T02:21:00.745Z,8.80
2017-11-25T02:23:29.206Z,8.60
2017-11-25T02:25:57.526Z,8.80
2017-11-25T02:28:25.847Z,8.70
2017-11-25T02:30:54.275Z,8.60
2017-11-25T02:33:23.427Z,8.70
2017-11-25T02:35:51.771Z,8.70
2017-11-25T02:38:20.126Z,8.80
2017-11-25T02:40:50.205Z,8.60
2017-11-25T02:43:18.506Z,8.80
2017-11-25T02:45:46.793Z,8.70
2017-11-25T02:48:16.066Z,8.70
2017-11-25T02:50:44.361Z,8.70
2017-11-25T02:53:12.658Z,8.70
2017-11-25T02:55:41.097Z,8.70
2017-11-25T02:58:10.226Z,8.80
2017-11-25T03:00:38.520Z,8.80
2017-11-25T03:03:06.874Z,8.80
2017-11-25T03:05:35.947Z,8.70
2017-11-25T03:08:04.213Z,9.00
2017-11-25T03:10:32.531Z,9.00
2017-11-25T03:13:00.874Z,8.80
2017-11-25T03:15:31.479Z,8.80
2017-11-25T03:17:59.754Z,8.70
2017-11-25T03:20:28.837Z,8.80
2017-11-25T03:22:57.123Z,9.00
2017-11-25T03:25:25.486Z,8.80
2017-11-25T03:27:54.830Z,8.70
2017-11-25T03:30:23.870Z,8.70
2017-11-25T03:32:53.046Z,8.70
2017-11-25T03:35:21.330Z,8.90
2017-11-25T03:37:49.625Z,8.60
2017-11-25T03:40:17.946Z,8.70
2017-11-25T03:42:46.250Z,8.30
2017-11-25T03:45:14.600Z,8.60
2017-11-25T03:47:42.950Z,8.70
2017-11-25T03:50:11.255Z,8.70
2017-11-25T03:52:39.540Z,8.60
2017-11-25T03:55:10.368Z,8.40
2017-11-25T03:57:38.667Z,8.30
2017-11-25T04:00:06.961Z,8.50
2017-11-25T04:02:35.301Z,8.50
2017-11-25T04:05:03.584Z,8.20
2017-11-25T04:07:31.905Z,8.30
2017-11-25T04:10:00.265Z,8.20
2017-11-25T04:12:28.662Z,8.20
2017-11-25T04:14:57.606Z,8.50
2017-11-25T04:17:25.911Z,8.40
2017-11-25T04:19:54.229Z,8.00
2017-11-25T04:22:23.307Z,8.00
2017-11-25T04:24:51.653Z,8.30
2017-11-25T04:27:20.011Z,8.30
2017-11-25T04:29:48.399Z,8.40
2017-11-25T04:32:16.703Z,8.40
2017-11-25T04:34:45.121Z,8.50
2017-11-25T04:37:15.357Z,8.50
2017-11-25T04:39:43.752Z,8.50
2017-11-25T04:42:12.038Z,8.30
2017-11-25T04:44:41.163Z,8.50
2017-11-25T04:47:09.524Z,8.70
2017-11-25T04:49:37.807Z,8.80
2017-11-25T04:52:06.099Z,8.80
2017-11-25T04:54:34.388Z,8.90
2017-11-25T04:57:02.700Z,9.00
2017-11-25T04:59:31.085Z,9.00
2017-11-25T05:02:00.168Z,9.00
2017-11-25T05:04:29.251Z,9.00
2017-11-25T05:06:57.557Z,9.00
2017-11-25T05:09:25.906Z,9.10
2017-11-25T05:11:54.203Z,9.10
2017-11-25T05:14:22.495Z,9.00
2017-11-25T05:16:50.821Z,9.10
2017-11-25T05:19:19.113Z,9.00
2017-11-25T05:21:47.425Z,9.20
2017-11-25T05:24:15.795Z,9.50
2017-11-25T05:26:46.524Z,9.40
2017-11-25T05:29:15.006Z,9.00
2017-11-25T05:31:43.316Z,9.20
2017-11-25T05:34:11.587Z,9.30
2017-11-25T05:36:39.865Z,9.40
2017-11-25T05:39:08.744Z,9.60
2017-11-25T05:41:37.028Z,9.60
2017-11-25T05:44:06.245Z,9.70
2017-11-25T05:46:34.595Z,9.40
2017-11-25T05:49:02.900Z,9.50
2017-11-25T05:51:31.169Z,9.40
2017-11-25T05:53:59.488Z,9.80
2017-11-25T05:56:27.886Z,9.50
2017-11-25T05:58:56.161Z,9.60
2017-11-25T06:01:24.496Z,9.80
2017-11-25T06:03:53.642Z,9.80
2017-11-25T06:06:21.915Z,9.70
2017-11-25T06:08:50.222Z,9.40
2017-11-25T06:11:19.387Z,9.90
2017-11-25T06:13:47.670Z,9.80
2017-11-25T06:16:16.177Z,9.60
2017-11-25T06:18:44.492Z,9.70
2017-11-25T06:21:12.772Z,9.70
2017-11-25T06:23:41.089Z,9.30
2017-11-25T06:26:09.377Z,9.30
2017-11-25T06:28:38.417Z,9.20
2017-11-25T06:31:06.708Z,9.40
2017-11-25T06:33:35.006Z,9.20
2017-11-25T06:36:03.399Z,8.90
2017-11-25T06:38:31.747Z,8.90
2017-11-25T06:41:01.886Z,8.80
2017-11-25T06:43:30.183Z,8.80
2017-11-25T06:45:59.266Z,8.70
2017-11-25T06:48:27.549Z,8.70
2017-11-25T06:50:55.871Z,8.70
2017-11-25T06:53:25.021Z,8.70
2017-11-25T06:55:54.263Z,8.70
2017-11-25T06:58:22.562Z,8.50
2017-11-25T07:00:50.861Z,8.60
2017-11-25T07:03:19.170Z,8.70
2017-11-25T07:05:48.067Z,8.40
2017-11-25T07:08:16.398Z,8.70
2017-11-25T07:10:44.738Z,8.70
2017-11-25T07:13:13.014Z,8.70
2017-11-25T07:15:41.408Z,8.80
2017-11-25T07:18:09.703Z,8.80
2017-11-25T07:20:38.089Z,8.90
2017-11-25T07:23:06.405Z,9.10
2017-11-25T07:25:34.857Z,9.20
2017-11-25T07:28:03.291Z,9.10
2017-11-25T07:30:31.619Z,9.50
2017-11-25T07:32:59.887Z,9.30
2017-11-25T07:35:28.181Z,9.30
2017-11-25T07:37:57.377Z,9.40
2017-11-25T07:40:26.459Z,9.70
2017-11-25T07:42:56.422Z,9.90
2017-11-25T07:45:24.791Z,10.20
2017-11-25T07:47:53.055Z,10.60
2017-11-25T07:50:21.409Z,10.70
2017-11-25T07:52:50.558Z,10.80
2017-11-25T07:55:19.083Z,10.50
2017-11-25T07:57:47.407Z,10.10
2017-11-25T08:00:15.707Z,10.20
2017-11-25T08:02:43.993Z,10.10
2017-11-25T08:05:12.498Z,10.00
2017-11-25T08:07:40.793Z,10.00
2017-11-25T08:10:09.879Z,10.00
2017-11-25T08:12:38.955Z,10.10
2017-11-25T08:15:07.969Z,9.80
2017-11-25T08:17:36.235Z,9.70
2017-11-25T08:20:05.272Z,9.60
2017-11-25T08:22:33.533Z,9.80
2017-11-25T08:25:01.795Z,9.80
2017-11-25T08:27:30.088Z,9.70
2017-11-25T08:29:58.653Z,9.70
2017-11-25T08:32:26.909Z,9.30
2017-11-25T08:34:56.677Z,9.40
2017-11-25T08:37:24.934Z,9.30
2017-11-25T08:39:53.225Z,9.40
2017-11-25T08:42:21.481Z,9.10
2017-11-25T08:44:49.741Z,9.10
2017-11-25T08:47:18.899Z,9.10
2017-11-25T08:49:47.141Z,9.00
2017-11-25T08:52:15.396Z,9.10
2017-11-25T08:54:43.690Z,9.10
2017-11-25T08:57:12.010Z,9.10
2017-11-25T08:59:40.271Z,8.60
2017-11-25T09:02:08.542Z,8.80
2017-11-25T09:04:36.784Z,8.70
2017-11-25T09:07:06.776Z,8.80
2017-11-25T09:09:35.969Z,8.80
2017-11-25T09:12:04.246Z,8.70
2017-11-25T09:14:33.457Z,8.50
2017-11-25T09:17:01.734Z,8.40
2017-11-25T09:19:30.905Z,8.60
2017-11-25T09:21:59.956Z,8.20
2017-11-25T09:24:28.296Z,8.50
2017-11-25T09:26:56.514Z,8.40
2017-11-25T09:29:24.775Z,8.30
2017-11-25T09:31:53.061Z,8.30
2017-11-25T09:34:21.322Z,8.40
2017-11-25T09:36:49.602Z,8.20
2017-11-25T09:39:17.909Z,8.30
2017-11-25T09:41:46.974Z,8.80
2017-11-25T09:44:15.250Z,8.70
2017-11-25T09:46:44.293Z,8.50
2017-11-25T09:49:12.696Z,8.60
2017-11-25T09:51:40.933Z,8.60
2017-11-25T09:54:09.253Z,8.80
2017-11-25T09:56:37.534Z,9.10
2017-11-25T09:59:07.671Z,9.00
2017-11-25T10:01:36.682Z,9.00
2017-11-25T10:04:05.758Z,8.70
2017-11-25T10:06:34.095Z,9.00
2017-11-25T10:09:02.395Z,8.60
2017-11-25T10:11:30.639Z,8.80
2017-11-25T10:13:59.066Z,8.60
2017-11-25T10:16:28.115Z,8.30
2017-11-25T10:18:57.172Z,8.20
2017-11-25T10:21:25.474Z,8.20
2017-11-25T10:23:53.815Z,8.40
2017-11-25T10:26:27.753Z,8.30
2017-11-25T10:28:56.009Z,8.30
2017-11-25T10:31:24.299Z,8.40
2017-11-25T10:33:52.720Z,8.70
2017-11-25T10:36:21.750Z,8.60
2017-11-25T10:38:50.787Z,8.60
2017-11-25T10:41:19.064Z,8.70
2017-11-25T10:43:47.463Z,8.80
2017-11-25T10:46:15.903Z,8.50
2017-11-25T10:48:44.968Z,8.60
2017-11-25T10:51:14.208Z,8.20
2017-11-25T10:53:42.467Z,8.60
2017-11-25T10:56:10.897Z,8.30
2017-11-25T10:58:39.179Z,8.70
2017-11-25T11:01:07.484Z,8.50
2017-11-25T11:03:35.748Z,8.60
2017-11-25T11:06:04.004Z,8.50
2017-11-25T11:08:32.280Z,8.50
2017-11-25T11:11:02.046Z,8.90
2017-11-25T11:13:30.322Z,8.50
2017-11-25T11:15:58.742Z,9.00
2017-11-25T11:18:27.004Z,8.90
2017-11-25T11:20:55.693Z,8.50
2017-11-25T11:23:23.928Z,8.70
2017-11-25T11:25:52.309Z,8.60
2017-11-25T11:28:20.583Z,8.50
2017-11-25T11:30:48.853Z,8.50
2017-11-25T11:33:17.202Z,8.50
2017-11-25T11:35:45.445Z,8.90
2017-11-25T11:38:13.863Z,8.60
2017-11-25T11:40:42.121Z,9.00
2017-11-25T11:43:11.214Z,9.30
2017-11-25T11:45:39.450Z,9.30
2017-11-25T11:48:07.751Z,9.00
2017-11-25T11:50:36.387Z,8.90
2017-11-25T11:53:04.944Z,8.70
2017-11-25T11:55:33.221Z,8.70
2017-11-25T11:58:01.501Z,8.80
2017-11-25T12:00:29.778Z,8.60
2017-11-25T12:02:59.424Z,8.90
2017-11-25T12:05:27.748Z,8.90
2017-11-25T12:07:56.027Z,9.00
2017-11-25T12:10:24.281Z,9.00
2017-11-25T12:12:52.580Z,9.30
2017-11-25T12:15:20.834Z,9.30
2017-11-25T12:17:49.912Z,9.10
2017-11-25T12:20:18.225Z,9.10
2017-11-25T12:22:46.454Z,8.90
2017-11-25T12:25:14.718Z,9.20
2017-11-25T12:27:43.021Z,9.10
2017-11-25T12:30:12.359Z,9.10
2017-11-25T12:32:40.632Z,9.20
2017-11-25T12:35:08.913Z,9.50
2017-11-25T12:37:37.197Z,9.50
2017-11-25T12:40:05.687Z,9.60
2017-11-25T12:42:33.960Z,9.70
2017-11-25T12:45:02.991Z,9.80
2017-11-25T12:47:31.323Z,9.70
2017-11-25T12:49:59.651Z,9.70
2017-11-25T12:52:27.915Z,9.70
2017-11-25T12:54:56.173Z,9.90
2017-11-25T12:57:24.435Z,9.70
2017-11-25T12:59:52.741Z,9.60
2017-11-25T13:02:21.193Z,9.70
2017-11-25T13:04:49.479Z,9.50
2017-11-25T13:07:17.791Z,9.60
2017-11-25T13:09:46.058Z,9.30
2017-11-25T13:12:14.471Z,9.70
2017-11-25T13:14:42.768Z,9.30
2017-11-25T13:17:11.316Z,9.60
2017-11-25T13:19:39.650Z,9.30
2017-11-25T13:22:08.681Z,9.70
2017-11-25T13:24:36.935Z,9.60
2017-11-25T13:27:05.229Z,9.30
2017-11-25T13:29:33.531Z,9.60
2017-11-25T13:32:01.927Z,9.60
2017-11-25T13:34:30.302Z,9.50
2017-11-25T13:36:58.602Z,9.60
2017-11-25T13:39:26.936Z,9.30
2017-11-25T13:41:55.263Z,9.60
2017-11-25T13:44:24.336Z,9.60
2017-11-25T13:46:52.571Z,9.60
2017-11-25T13:49:20.887Z,9.90
2017-11-25T13:51:49.170Z,9.70
2017-11-25T13:54:17.535Z,10.00
2017-11-25T13:56:45.821Z,10.10
2017-11-25T13:59:14.094Z,10.20
2017-11-25T14:01:42.372Z,9.90
2017-11-25T14:04:10.648Z,10.00
2017-11-25T14:06:38.945Z,10.10
2017-11-25T14:09:07.981Z,10.10
2017-11-25T14:11:36.378Z,9.90
2017-11-25T14:14:04.864Z,10.10
2017-11-25T14:16:33.918Z,10.00
2017-11-25T14:19:03.121Z,10.00
2017-11-25T14:21:31.607Z,9.90
2017-11-25T14:23:59.852Z,10.00
2017-11-25T14:26:28.160Z,9.90
2017-11-25T14:28:57.040Z,10.00
2017-11-25T14:31:25.291Z,9.80
2017-11-25T14:33:53.575Z,10.00
2017-11-25T14:36:21.830Z,9.90
2017-11-25T14:38:50.311Z,9.80
2017-11-25T14:41:18.591Z,9.70
2017-11-25T14:43:46.852Z,9.70
2017-11-25T14:46:15.990Z,10.00
2017-11-25T14:48:45.595Z,9.70
2017-11-25T14:51:14.773Z,9.90
2017-11-25T14:53:43.500Z,9.70
2017-11-25T14:56:11.789Z,10.00
2017-11-25T14:58:40.195Z,9.70
2017-11-25T15:01:08.597Z,9.80
2017-11-25T15:03:37.642Z,9.70
2017-11-25T15:06:06.876Z,9.60
2017-11-25T15:08:35.950Z,9.60
2017-11-25T15:11:05.018Z,9.80
2017-11-25T15:13:33.355Z,9.70
2017-11-25T15:16:01.656Z,9.80
2017-11-25T15:18:30.686Z,9.70
2017-11-25T15:20:58.983Z,9.70
2017-11-25T15:23:28.251Z,9.60
2017-11-25T15:25:57.440Z,9.50
2017-11-25T15:28:39.744Z,9.70
2017-11-25T15:31:08.302Z,9.60
2017-11-25T15:33:36.566Z,9.80
2017-11-25T15:36:13.608Z,9.70
2017-11-25T15:38:46.327Z,9.70
2017-11-25T15:41:14.686Z,9.60
2017-11-25T15:43:42.981Z,9.70
2017-11-25T15:46:11.236Z,9.40
2017-11-25T15:48:39.517Z,9.50
2017-11-25T15:51:09.612Z,9.50
2017-11-25T15:53:38.878Z,9.20
2017-11-25T15:56:07.174Z,9.60
2017-11-25T15:58:35.573Z,9.60
2017-11-25T16:01:03.880Z,9.40
2017-11-25T16:03:33.617Z,9.30
2017-11-25T16:06:02.766Z,9.20
2017-11-25T16:08:31.023Z,9.40
2017-11-25T16:11:00.368Z,9.00
2017-11-25T16:13:29.545Z,9.20
2017-11-25T16:15:57.955Z,9.30
2017-11-25T16:18:27.069Z,9.40
2017-11-25T16:20:55.585Z,9.30
2017-11-25T16:23:24.328Z,9.20
2017-11-25T16:25:52.642Z,9.30
2017-11-25T16:28:20.914Z,9.20
2017-11-25T16:30:49.156Z,9.20
2017-11-25T16:33:17.420Z,9.10
2017-11-25T16:35:45.685Z,9.10
2017-11-25T16:38:13.952Z,9.10
2017-11-25T16:40:42.405Z,9.00
2017-11-25T16:43:12.401Z,9.10
2017-11-25T16:45:40.690Z,9.00
2017-11-25T16:48:14.816Z,9.00
2017-11-25T16:50:43.297Z,9.00
2017-11-25T16:53:11.546Z,8.90
2017-11-25T16:55:39.868Z,9.00
2017-11-25T16:58:08.117Z,9.10
2017-11-25T17:00:36.415Z,9.00
2017-11-25T17:03:04.730Z,8.90
2017-11-25T17:05:33.190Z,9.00
2017-11-25T17:08:01.478Z,8.90
2017-11-25T17:10:29.738Z,9.00
2017-11-25T17:12:58.825Z,8.90
2017-11-25T17:15:27.140Z,8.90
2017-11-25T17:17:56.137Z,9.00
2017-11-25T17:20:24.398Z,8.90
2017-11-25T17:22:53.435Z,8.90
2017-11-25T17:25:22.566Z,8.70
2017-11-25T17:27:50.940Z,8.70
2017-11-25T17:30:19.202Z,9.00
2017-11-25T17:32:47.437Z,8.90
2017-11-25T17:35:15.720Z,9.00
2017-11-25T17:37:44.025Z,8.80
2017-11-25T17:40:12.281Z,9.10
2017-11-25T17:42:40.597Z,8.90
2017-11-25T17:45:08.823Z,9.00
2017-11-25T17:47:37.103Z,8.60
2017-11-25T17:50:05.395Z,9.00
2017-11-25T17:52:33.678Z,8.80
2017-11-25T17:55:01.935Z,8.60
2017-11-25T17:57:30.223Z,9.00
2017-11-25T17:59:58.614Z,8.80
2017-11-25T18:02:26.863Z,8.60
2017-11-25T18:04:55.208Z,8.70
2017-11-25T18:07:23.472Z,8.70
2017-11-25T18:09:51.760Z,8.80
2017-11-25T18:12:20.902Z,8.70
2017-11-25T18:14:49.147Z,8.70
2017-11-25T18:17:17.488Z,9.00
2017-11-25T18:19:46.514Z,8.90
2017-11-25T18:22:15.624Z,8.80
2017-11-25T18:24:43.908Z,9.00
2017-11-25T18:27:12.187Z,9.10
2017-11-25T18:29:40.513Z,8.90
2017-11-25T18:32:08.789Z,8.90
2017-11-25T18:34:37.766Z,9.00
2017-11-25T18:37:06.038Z,8.90
2017-11-25T18:39:34.603Z,8.70
2017-11-25T18:42:02.900Z,8.90
2017-11-25T18:44:31.188Z,8.70
2017-11-25T18:46:59.537Z,8.80
2017-11-25T18:49:28.775Z,8.60
2017-11-25T18:51:57.045Z,8.70
2017-11-25T18:54:25.335Z,8.80
2017-11-25T18:56:53.613Z,8.70
2017-11-25T18:59:22.822Z,8.60
2017-11-25T19:01:51.126Z,8.40
2017-11-25T19:04:19.370Z,8.60
2017-11-25T19:06:48.407Z,8.30
2017-11-25T19:09:16.686Z,8.30
2017-11-25T19:11:45.226Z,8.30
2017-11-25T19:14:13.514Z,8.40
2017-11-25T19:16:41.803Z,8.30
2017-11-25T19:19:10.138Z,8.30
2017-11-25T19:21:40.486Z,8.20
2017-11-25T19:24:09.750Z,8.30
2017-11-25T19:26:38.751Z,8.40
2017-11-25T19:29:07.023Z,8.40
2017-11-25T19:31:35.314Z,8.30
2017-11-25T19:34:04.323Z,8.00
2017-11-25T19:36:32.786Z,8.30
2017-11-25T19:39:01.251Z,8.40
2017-11-25T19:41:29.695Z,8.40
2017-11-25T19:43:57.990Z,8.00
2017-11-25T19:46:26.259Z,8.50
2017-11-25T19:48:54.527Z,7.90
2017-11-25T19:51:22.816Z,7.90
2017-11-25T19:53:51.272Z,8.10
2017-11-25T19:56:19.656Z,8.00
2017-11-25T19:58:48.088Z,8.10
2017-11-25T20:01:16.563Z,8.10
2017-11-25T20:03:44.853Z,8.00
2017-11-25T20:06:13.314Z,8.10
2017-11-25T20:08:41.677Z,8.10
2017-11-25T20:11:10.772Z,7.80
2017-11-25T20:13:39.035Z,7.70
2017-11-25T20:16:07.329Z,7.70
2017-11-25T20:18:35.616Z,7.50
2017-11-25T20:21:03.908Z,7.80
2017-11-25T20:23:32.924Z,7.40
2017-11-25T20:26:01.216Z,7.30
2017-11-25T20:28:29.551Z,7.50
2017-11-25T20:30:57.800Z,7.60
2017-11-25T20:33:26.083Z,7.50
2017-11-25T20:35:55.246Z,7.40
2017-11-25T20:38:23.501Z,7.60
2017-11-25T20:40:51.786Z,7.40
2017-11-25T20:43:20.037Z,7.40
2017-11-25T20:45:48.303Z,7.40
2017-11-25T20:48:16.635Z,7.20
2017-11-25T20:50:44.927Z,7.40
2017-11-25T20:53:13.194Z,7.20
2017-11-25T20:55:41.473Z,7.10
2017-11-25T20:58:09.809Z,7.30
2017-11-25T21:00:38.051Z,7.40
2017-11-25T21:03:06.355Z,7.40
2017-11-25T21:05:34.635Z,7.30
2017-11-25T21:08:03.662Z,7.00
2017-11-25T21:10:31.959Z,7.30
2017-11-25T21:13:00.186Z,7.30
2017-11-25T21:15:29.348Z,7.20
2017-11-25T21:17:58.005Z,7.20
2017-11-25T21:20:26.380Z,7.30
2017-11-25T21:22:54.643Z,7.40
2017-11-25T21:25:22.922Z,7.40
2017-11-25T21:27:51.226Z,7.50
2017-11-25T21:30:19.627Z,7.50
2017-11-25T21:32:48.021Z,7.80
2017-11-25T21:35:17.339Z,7.70
2017-11-25T21:37:45.852Z,7.60
2017-11-25T21:40:14.939Z,7.30
2017-11-25T21:42:43.245Z,7.40
2017-11-25T21:45:11.549Z,7.40
2017-11-25T21:47:42.024Z,7.30
2017-11-25T21:50:11.165Z,7.40
2017-11-25T21:52:40.430Z,7.00
2017-11-25T21:55:08.840Z,7.10
2017-11-25T21:57:37.262Z,7.10
2017-11-25T22:00:06.323Z,7.10
2017-11-25T22:02:35.341Z,7.00
2017-11-25T22:05:03.785Z,7.00
2017-11-25T22:07:32.106Z,7.10
2017-11-25T22:10:00.359Z,7.10
2017-11-25T22:12:28.792Z,7.20
2017-11-25T22:14:57.093Z,7.00
2017-11-25T22:17:26.196Z,7.30
2017-11-25T22:19:54.596Z,7.40
2017-11-25T22:22:24.251Z,7.40
2017-11-25T22:24:52.962Z,7.10
2017-11-25T22:27:21.277Z,7.40
2017-11-25T22:29:49.551Z,7.10
2017-11-25T22:32:17.798Z,7.10
2017-11-25T22:34:47.035Z,7.10
2017-11-25T22:37:15.283Z,7.30
2017-11-25T22:39:43.549Z,7.10
2017-11-25T22:42:11.851Z,7.10
2017-11-25T22:44:40.101Z,7.10
2017-11-25T22:47:08.514Z,7.10
2017-11-25T22:49:37.798Z,7.10
2017-11-25T22:52:06.870Z,7.10
2017-11-25T22:54:35.139Z,7.00
2017-11-25T22:57:03.387Z,7.10
2017-11-25T22:59:32.003Z,6.80
2017-11-25T23:02:01.795Z,7.10
2017-11-25T23:04:30.066Z,7.00
2017-11-25T23:06:59.253Z,7.20
2017-11-25T23:09:27.490Z,7.20
2017-11-25T23:11:56.602Z,7.00
2017-11-25T23:14:24.967Z,7.20
2017-11-25T23:16:53.225Z,6.70
2017-11-25T23:19:21.620Z,7.00
2017-11-25T23:21:50.671Z,6.90
2017-11-25T23:24:18.964Z,6.80
2017-11-25T23:26:47.352Z,7.00
2017-11-25T23:29:15.586Z,6.90
2017-11-25T23:31:44.130Z,6.90
2017-11-25T23:34:12.638Z,7.20
2017-11-25T23:36:40.932Z,7.10
2017-11-25T23:39:09.223Z,7.20
2017-11-25T23:41:37.487Z,7.10
2017-11-25T23:44:05.747Z,7.20
2017-11-25T23:46:34.047Z,7.10
2017-11-25T23:49:02.348Z,7.20
2017-11-25T23:51:30.629Z,7.20
2017-11-25T23:53:58.877Z,7.20
2017-11-25T23:56:27.125Z,7.10
2017-11-25T23:58:55.424Z,7.10
